createdAt,value
2023-03-21T00:06:57.871Z,101261.69
2023-03-21T00:14:31.783Z,101259.00
2023-03-21T00:30:01.362Z,101248.34
2023-03-21T00:37:36.608Z,101249.25
2023-03-21T00:45:11.550Z,101244.75
2023-03-21T00:52:46.901Z,101250.94
2023-03-21T01:00:21.323Z,101243.78
2023-03-21T01:07:56.892Z,101234.78
2023-03-21T01:15:31.185Z,101239.28
2023-03-21T01:23:06.471Z,101230.19
2023-03-21T01:30:42.097Z,101235.44
2023-03-21T01:38:17.404Z,101230.84
2023-03-21T01:46:24.757Z,101228.19
2023-03-21T01:54:00.619Z,101228.72
2023-03-21T02:01:35.043Z,101229.75
2023-03-21T02:09:14.853Z,101221.44
2023-03-21T02:16:56.287Z,101214.25
2023-03-21T02:24:59.596Z,101214.03
2023-03-21T02:32:50.792Z,101207.84
2023-03-21T02:40:32.065Z,101209.63
2023-03-21T02:48:20.261Z,101214.84
2023-03-21T02:56:03.181Z,101219.22
2023-03-21T03:03:39.596Z,101212.09
2023-03-21T03:11:25.968Z,101212.09
2023-03-21T03:19:02.431Z,101211.13
2023-03-21T03:26:42.430Z,101206.63
2023-03-21T03:34:21.271Z,101213.75
2023-03-21T03:42:27.622Z,101220.81
2023-03-21T03:50:02.025Z,101226.06
2023-03-21T03:57:37.873Z,101218.88
2023-03-21T04:05:12.023Z,101215.28
2023-03-21T04:12:47.464Z,101218.03
2023-03-21T04:20:35.635Z,101210.75
2023-03-21T04:28:11.854Z,101215.16
2023-03-21T04:35:46.166Z,101213.22
2023-03-21T04:43:22.205Z,101212.31
2023-03-21T04:50:56.182Z,101212.38
2023-03-21T04:58:31.586Z,101211.53
2023-03-21T05:06:06.958Z,101210.59
2023-03-21T05:13:42.279Z,101203.41
2023-03-21T05:21:18.310Z,101208.69
2023-03-21T05:28:53.700Z,101205.97
2023-03-21T05:36:27.647Z,101196.19
2023-03-21T05:44:03.029Z,101207.72
2023-03-21T05:51:36.850Z,101212.06
2023-03-21T05:59:12.212Z,101208.38
2023-03-21T06:06:46.225Z,101210.84
2023-03-21T06:22:13.012Z,101215.34
2023-03-21T06:29:48.521Z,101218.88
2023-03-21T06:37:22.582Z,101228.69
2023-03-21T06:44:58.242Z,101224.44
2023-03-21T06:52:32.303Z,101220.97
2023-03-21T07:00:09.788Z,101230.69
2023-03-21T07:07:43.701Z,101228.84
2023-03-21T07:15:19.076Z,101227.31
2023-03-21T07:22:52.966Z,101228.16
2023-03-21T07:30:28.624Z,101232.75
2023-03-21T07:38:02.513Z,101235.72
2023-03-21T07:45:38.189Z,101235.81
2023-03-21T07:53:12.140Z,101236.91
2023-03-21T08:00:47.436Z,101237.06
2023-03-21T08:08:21.378Z,101229.19
2023-03-21T08:23:48.498Z,101233.94
2023-03-21T08:31:24.303Z,101231.28
2023-03-21T08:39:05.477Z,101223.53
2023-03-21T08:46:41.852Z,101224.50
2023-03-21T08:54:20.858Z,101231.84
2023-03-21T09:01:56.372Z,101218.56
2023-03-21T09:17:22.926Z,101223.56
2023-03-21T09:24:57.676Z,101223.78
2023-03-21T09:32:34.217Z,101231.13
2023-03-21T09:40:11.987Z,101220.75
2023-03-21T09:47:53.539Z,101223.69
2023-03-21T09:55:31.456Z,101213.31
2023-03-21T10:03:24.011Z,101215.34
2023-03-21T10:11:02.322Z,101212.13
2023-03-21T10:18:39.269Z,101197.19
2023-03-21T10:26:16.780Z,101195.59
2023-03-21T10:33:53.093Z,101187.78
2023-03-21T10:41:27.160Z,101180.16
2023-03-21T10:49:02.763Z,101174.28
2023-03-21T10:56:39.431Z,101167.50
2023-03-21T11:04:18.429Z,101170.56
2023-03-21T11:11:54.987Z,101172.72
2023-03-21T11:19:33.987Z,101168.41
2023-03-21T11:27:09.526Z,101158.84
2023-03-21T11:34:49.023Z,101144.91
2023-03-21T11:42:32.011Z,101138.94
2023-03-21T11:50:18.405Z,101126.00
2023-03-21T11:58:13.866Z,101119.22
2023-03-21T12:05:55.549Z,101113.25
2023-03-21T12:13:42.728Z,101108.06
2023-03-21T12:21:22.039Z,101095.59
2023-03-21T12:29:14.430Z,101095.59
2023-03-21T12:37:07.149Z,101084.91
2023-03-21T12:44:44.861Z,101078.63
2023-03-21T12:52:25.596Z,101074.16
2023-03-21T13:00:08.163Z,101064.44
2023-03-21T13:07:48.628Z,101058.22
2023-03-21T13:15:51.194Z,101044.84
2023-03-21T13:23:34.560Z,101037.75
2023-03-21T13:31:20.612Z,101030.59
2023-03-21T13:39:01.962Z,101018.16
2023-03-21T13:46:52.566Z,101022.72
2023-03-21T13:54:45.405Z,101018.28
2023-03-21T14:02:28.587Z,101006.75
2023-03-21T14:10:07.432Z,101003.34
2023-03-21T14:17:51.482Z,100993.56
2023-03-21T14:25:40.954Z,100990.00
2023-03-21T14:33:24.231Z,100973.03
2023-03-21T14:40:59.562Z,100973.97
2023-03-21T14:48:35.130Z,100965.94
2023-03-21T14:56:19.349Z,100962.38
2023-03-21T15:03:53.479Z,100951.69
2023-03-21T15:11:34.177Z,100944.59
2023-03-21T15:19:11.861Z,100936.53
2023-03-21T15:26:48.146Z,100934.75
2023-03-21T15:34:24.781Z,100933.88
2023-03-21T15:42:02.993Z,100926.72
2023-03-21T15:49:42.449Z,100920.47
2023-03-21T15:57:24.099Z,100906.13
2023-03-21T16:05:00.604Z,100890.00
2023-03-21T16:12:39.116Z,100897.16
2023-03-21T16:20:24.113Z,100886.38
2023-03-21T16:27:59.633Z,100904.25
2023-03-21T16:35:33.544Z,100896.19
2023-03-21T16:43:09.994Z,100906.94
2023-03-21T16:50:48.561Z,100899.72
2023-03-21T16:58:24.835Z,100888.97
2023-03-21T17:05:59.210Z,100897.91
2023-03-21T17:13:34.520Z,100877.34
2023-03-21T17:21:14.718Z,100875.53
2023-03-21T17:28:50.414Z,100880.84
2023-03-21T17:36:29.182Z,100869.22
2023-03-21T17:44:04.499Z,100868.25
2023-03-21T17:51:38.650Z,100868.22
2023-03-21T17:59:15.756Z,100863.75
2023-03-21T18:06:49.696Z,100859.28
2023-03-21T18:14:28.759Z,100868.19
2023-03-21T18:22:03.863Z,100870.84
2023-03-21T18:30:28.898Z,100861.91
2023-03-21T18:37:35.405Z,100861.88
2023-03-21T18:45:12.841Z,100868.97
2023-03-21T18:52:47.395Z,100873.38
2023-03-21T19:00:23.751Z,100875.13
2023-03-21T19:07:57.733Z,100875.13
2023-03-21T19:15:33.184Z,100867.06
2023-03-21T19:23:09.396Z,100860.75
2023-03-21T19:30:50.157Z,100862.53
2023-03-21T19:38:24.839Z,100858.03
2023-03-21T19:46:00.709Z,100855.19
2023-03-21T19:53:34.619Z,100852.47
2023-03-21T20:01:11.460Z,100853.34
2023-03-21T20:16:43.549Z,100863.94
2023-03-21T20:24:18.630Z,100867.53
2023-03-21T20:39:48.905Z,100862.94
2023-03-21T20:47:24.303Z,100863.81
2023-03-21T20:54:58.543Z,100846.78
2023-03-21T21:02:33.697Z,100836.06
2023-03-21T21:10:10.215Z,100831.41
2023-03-21T21:18:04.919Z,100840.38
2023-03-21T21:25:39.508Z,100849.28
2023-03-21T21:33:17.919Z,100841.22
2023-03-21T21:40:53.736Z,100820.56
2023-03-21T21:48:29.158Z,100833.03
2023-03-21T21:56:03.571Z,100814.28
2023-03-21T22:03:41.378Z,100816.91
2023-03-21T22:11:15.974Z,100818.66
2023-03-21T22:18:51.680Z,100811.50
2023-03-21T22:26:25.710Z,100828.41
2023-03-21T22:34:01.005Z,100822.13
2023-03-21T22:41:35.188Z,100801.59
2023-03-21T22:49:10.598Z,100808.66
2023-03-21T22:56:44.474Z,100814.81
2023-03-21T23:04:20.290Z,100800.53
2023-03-21T23:11:54.296Z,100802.28
2023-03-21T23:19:30.758Z,100812.06
2023-03-21T23:27:04.682Z,100800.44
2023-03-21T23:34:39.944Z,100789.69
2023-03-21T23:42:14.336Z,100778.03
2023-03-21T23:49:52.981Z,100777.09
2023-03-21T23:57:27.441Z,100777.88
